North Central West Virginia Airport Clarksburg US
ICAO: KCKB
IATA: CKB
Category: Medium
Scheduled Services: Yes

Elevation: 1217 ft
TransAlt. 18000 ft.

Airport Communications:
CLARKSBURG APP/DEP:119.6
ATIS:127.825
CTAF:126.7
GND:121.9
ARNG OPS:139.05
ELKINS RDO:112.6
CLARKSBURG TWR:126.7
UNICOM:123

KCKB Zoom In..

If Map Doesn't Load, Click Here

Runways:

(A) RW 03 length 7800 ft width 150 ft
---- / hdg 31

(B) RW 21 length 7800 ft width 150 ft
ILS 109.30 / hdg 211

Location; KCKB
Day. 26 / Time. 10.07 Zulu
* Altimeter: 29.99
* Temperature: 22° c. 71.6°f.
* Wind from: 210° Speed 04 kn.
Dewpoint: 18° c.
Visibility: 10 Statute Miles.
Clouds: Broken 2700 ft.
Clouds: Overcast 3600 ft.

KCKB 261007Z AUTO 21004KT 10SM BKN027 OVC036 22/18 A2999 RMK AO2 T02220183


Wind From 210°
Speed 04 kn.

 
 
jpsmedia.com for Web Design worldairports.se 2018   terms of use